createdAt,value
2023-03-11T00:00:12.349Z,978.4
2023-03-11T00:01:28.635Z,978.5
2023-03-11T00:02:44.937Z,978.6
2023-03-11T00:04:01.226Z,978.6
2023-03-11T00:05:17.515Z,978.7
2023-03-11T00:06:33.835Z,978.7
2023-03-11T00:07:50.131Z,978.8
2023-03-11T00:09:06.401Z,978.8
2023-03-11T00:10:22.707Z,978.9
2023-03-11T00:11:38.015Z,978.9
2023-03-11T00:12:54.307Z,979
2023-03-11T00:14:10.587Z,978.9
2023-03-11T00:15:26.901Z,979
2023-03-11T00:16:43.177Z,979.1
2023-03-11T00:17:59.478Z,979
2023-03-11T00:19:15.795Z,979.2
2023-03-11T00:20:32.085Z,979.3
2023-03-11T00:21:48.370Z,979.3
2023-03-11T00:23:04.660Z,979.4
2023-03-11T00:24:20.954Z,979.3
2023-03-11T00:25:37.246Z,979.4
2023-03-11T00:26:53.563Z,979.5
2023-03-11T00:28:08.874Z,979.5
2023-03-11T00:29:25.172Z,979.5
2023-03-11T00:30:41.436Z,979.5
2023-03-11T00:31:57.731Z,979.6
2023-03-11T00:33:14.027Z,979.6
2023-03-11T00:34:30.315Z,979.7
2023-03-11T00:35:46.610Z,979.8
2023-03-11T00:37:02.912Z,979.7
2023-03-11T00:38:19.206Z,979.8
2023-03-11T00:39:35.499Z,980
2023-03-11T00:40:51.802Z,980
2023-03-11T00:42:08.104Z,979.9
2023-03-11T00:43:24.382Z,980
2023-03-11T00:44:39.713Z,980.1
2023-03-11T00:45:55.997Z,980.1
2023-03-11T00:47:12.284Z,980.1
2023-03-11T00:48:28.588Z,980.2
2023-03-11T00:49:44.891Z,980.2
2023-03-11T00:51:01.160Z,980.3
2023-03-11T00:52:17.462Z,980.3
2023-03-11T00:53:33.767Z,980.3
2023-03-11T00:54:50.055Z,980.4
2023-03-11T00:56:06.352Z,980.5
2023-03-11T00:57:22.651Z,980.5
2023-03-11T00:58:38.956Z,980.4
2023-03-11T00:59:55.245Z,980.5
2023-03-11T01:01:10.539Z,980.5
2023-03-11T01:02:26.860Z,980.6
2023-03-11T01:03:43.134Z,980.6
2023-03-11T01:04:59.450Z,980.8
2023-03-11T01:06:15.721Z,980.8
2023-03-11T01:07:32.010Z,980.8
2023-03-11T01:08:48.325Z,980.8
2023-03-11T01:10:04.601Z,980.7
2023-03-11T01:11:20.920Z,980.9
2023-03-11T01:12:37.186Z,980.9
2023-03-11T01:13:53.480Z,981.1
2023-03-11T01:15:09.811Z,981
2023-03-11T01:16:26.090Z,981
2023-03-11T01:17:41.416Z,981
2023-03-11T01:18:57.690Z,981
2023-03-11T01:20:13.984Z,981.1
2023-03-11T01:21:30.273Z,981.1
2023-03-11T01:22:46.559Z,981.2
2023-03-11T01:24:02.890Z,981.2
2023-03-11T01:25:19.148Z,981.3
2023-03-11T01:26:35.456Z,981.3
2023-03-11T01:27:51.743Z,981.2
2023-03-11T01:29:08.051Z,981.4
2023-03-11T01:30:24.328Z,981.3
2023-03-11T01:31:40.635Z,981.4
2023-03-11T01:32:56.933Z,981.5
2023-03-11T01:34:12.226Z,981.5
2023-03-11T01:35:28.522Z,981.4
2023-03-11T01:36:44.825Z,981.4
2023-03-11T01:38:01.110Z,981.5
2023-03-11T01:39:17.428Z,981.7
2023-03-11T01:40:33.712Z,981.7
2023-03-11T01:41:49.992Z,981.7
2023-03-11T01:43:06.286Z,981.8
2023-03-11T01:44:22.583Z,981.8
2023-03-11T01:45:38.879Z,981.9
2023-03-11T01:46:55.180Z,981.8
2023-03-11T01:48:11.498Z,981.9
2023-03-11T01:49:27.772Z,982
2023-03-11T01:50:43.073Z,982
2023-03-11T01:51:59.394Z,982
2023-03-11T01:53:15.691Z,982.2
2023-03-11T01:54:31.957Z,982.1
2023-03-11T01:55:48.252Z,982.3
2023-03-11T01:57:04.562Z,982.2
2023-03-11T01:58:20.850Z,982.3
2023-03-11T01:59:37.145Z,982.3
2023-03-11T02:00:53.438Z,982.3
2023-03-11T02:02:09.755Z,982.4
2023-03-11T02:03:26.025Z,982.5
2023-03-11T02:04:42.320Z,982.6
2023-03-11T02:05:58.625Z,982.6
2023-03-11T02:07:13.944Z,982.7
2023-03-11T02:08:30.223Z,982.7
2023-03-11T02:09:46.514Z,982.6
2023-03-11T02:11:02.821Z,982.8
2023-03-11T02:12:19.109Z,982.7
2023-03-11T02:13:35.425Z,982.8
2023-03-11T02:14:51.701Z,982.9
2023-03-11T02:16:07.984Z,983
2023-03-11T02:17:24.290Z,983
2023-03-11T02:18:40.583Z,983
2023-03-11T02:19:56.867Z,983
2023-03-11T02:21:13.160Z,983.1
2023-03-11T02:22:29.474Z,983
2023-03-11T02:23:44.802Z,983.2
2023-03-11T02:25:01.068Z,983.2
2023-03-11T02:26:17.378Z,983.2
2023-03-11T02:28:49.947Z,983.4
2023-03-11T02:30:06.260Z,983.4
2023-03-11T02:31:22.539Z,983.5
2023-03-11T02:32:38.834Z,983.5
2023-03-11T02:33:55.127Z,983.5
2023-03-11T02:35:11.421Z,983.6
2023-03-11T02:36:27.714Z,983.7
2023-03-11T02:37:44.013Z,983.8
2023-03-11T02:39:00.326Z,983.7
2023-03-11T02:40:15.630Z,983.7
2023-03-11T02:41:31.926Z,983.8
2023-03-11T02:42:48.220Z,983.9
2023-03-11T02:44:04.508Z,983.9
2023-03-11T02:45:20.802Z,983.9
2023-03-11T02:46:37.098Z,983.9
2023-03-11T02:47:53.382Z,983.9
2023-03-11T02:49:09.697Z,984.1
2023-03-11T02:50:25.977Z,984.2
2023-03-11T02:51:42.271Z,984.2
2023-03-11T02:52:58.577Z,984.3
2023-03-11T02:54:14.883Z,984.4
2023-03-11T02:55:31.155Z,984.4
2023-03-11T02:56:46.478Z,984.4
2023-03-11T02:58:02.761Z,984.4
2023-03-11T02:59:19.067Z,984.5
2023-03-11T03:00:35.360Z,984.4
2023-03-11T03:01:51.646Z,984.5
2023-03-11T03:03:07.949Z,984.5
2023-03-11T03:04:23.250Z,984.7
2023-03-11T03:05:39.551Z,984.7
2023-03-11T03:06:55.852Z,984.9
2023-03-11T03:08:12.136Z,984.8
2023-03-11T03:09:28.450Z,984.8
2023-03-11T03:10:44.724Z,984.8
2023-03-11T03:12:01.024Z,984.8
2023-03-11T03:13:17.348Z,984.9
2023-03-11T03:14:33.605Z,984.9
2023-03-11T03:15:49.924Z,985.2
2023-03-11T03:17:06.197Z,985
2023-03-11T03:18:22.489Z,985.1
2023-03-11T03:19:38.793Z,985.2
2023-03-11T03:20:54.110Z,985.3
2023-03-11T03:22:10.398Z,985.3
2023-03-11T03:24:42.981Z,985.5
2023-03-11T03:25:59.276Z,985.5
2023-03-11T03:27:15.580Z,985.5
2023-03-11T03:28:31.876Z,985.6
2023-03-11T03:29:48.173Z,985.6
2023-03-11T03:31:04.464Z,985.6
2023-03-11T03:32:20.763Z,985.7
2023-03-11T03:33:37.050Z,985.7
2023-03-11T03:34:53.351Z,985.7
2023-03-11T03:36:09.632Z,985.8
2023-03-11T03:37:24.960Z,985.7
2023-03-11T03:38:41.238Z,985.8
2023-03-11T03:39:57.542Z,985.8
2023-03-11T03:41:13.830Z,985.9
2023-03-11T03:42:30.134Z,985.9
2023-03-11T03:43:46.431Z,985.9
2023-03-11T03:45:02.720Z,986
2023-03-11T03:46:19.013Z,985.9
2023-03-11T03:47:35.314Z,986
2023-03-11T03:48:51.598Z,986.1
2023-03-11T03:50:07.889Z,986.1
2023-03-11T03:51:24.193Z,986.1
2023-03-11T03:52:40.495Z,986.1
2023-03-11T03:53:56.908Z,986.2
2023-03-11T03:55:13.195Z,986.3
2023-03-11T03:56:29.491Z,986.3
2023-03-11T03:57:45.794Z,986.3
2023-03-11T03:59:02.082Z,986.4
2023-03-11T04:00:18.379Z,986.4
2023-03-11T04:01:34.676Z,986.4
2023-03-11T04:02:50.968Z,986.4
2023-03-11T04:04:07.262Z,986.5
2023-03-11T04:05:23.564Z,986.6
2023-03-11T04:06:39.850Z,986.5
2023-03-11T04:07:56.145Z,986.6
2023-03-11T04:09:12.455Z,986.7
2023-03-11T04:10:27.759Z,986.6
2023-03-11T04:11:44.072Z,986.7
2023-03-11T04:13:00.332Z,986.6
2023-03-11T04:14:16.635Z,986.7
2023-03-11T04:15:32.923Z,986.7
2023-03-11T04:16:49.218Z,986.8
2023-03-11T04:18:05.515Z,986.8
2023-03-11T04:19:21.844Z,986.8
2023-03-11T04:20:38.129Z,986.9
2023-03-11T04:21:54.408Z,986.9
2023-03-11T04:23:10.693Z,986.8
2023-03-11T04:24:26.996Z,987
2023-03-11T04:25:43.290Z,986.9
2023-03-11T04:26:58.595Z,986.9
2023-03-11T04:28:14.894Z,987
2023-03-11T04:29:31.192Z,987
2023-03-11T04:30:47.502Z,987.1
2023-03-11T04:32:03.781Z,987
2023-03-11T04:33:20.068Z,987.2
2023-03-11T04:34:36.369Z,987.2
2023-03-11T04:35:52.660Z,987.2
2023-03-11T04:37:08.965Z,987.2
2023-03-11T04:38:25.246Z,987.3
2023-03-11T04:39:41.536Z,987.2
2023-03-11T04:40:57.837Z,987.3
2023-03-11T04:42:14.137Z,987.3
2023-03-11T04:43:29.443Z,987.3
2023-03-11T04:44:45.732Z,987.4
2023-03-11T04:46:02.051Z,987.4
2023-03-11T04:47:18.332Z,987.5
2023-03-11T04:48:34.632Z,987.4
2023-03-11T04:49:50.928Z,987.6
2023-03-11T04:51:07.234Z,987.5
2023-03-11T04:52:23.507Z,987.6
2023-03-11T04:53:39.804Z,987.6
2023-03-11T04:54:56.095Z,987.7
2023-03-11T04:56:12.395Z,987.7
2023-03-11T04:57:28.699Z,987.7
2023-03-11T04:58:45.014Z,987.7
2023-03-11T05:00:00.296Z,987.8
2023-03-11T05:01:16.596Z,987.8
2023-03-11T05:02:32.891Z,987.9
2023-03-11T05:03:49.175Z,987.8
2023-03-11T05:05:05.000Z,987.9
2023-03-11T05:06:21.760Z,987.9
2023-03-11T05:07:38.068Z,987.9
2023-03-11T05:08:54.376Z,988
2023-03-11T05:10:10.661Z,987.9
2023-03-11T05:11:26.897Z,988
2023-03-11T05:12:43.140Z,988
2023-03-11T05:13:59.401Z,988
2023-03-11T05:15:15.692Z,988
2023-03-11T05:16:30.953Z,988
2023-03-11T05:17:47.184Z,988
2023-03-11T05:19:03.440Z,988.1
2023-03-11T05:20:19.701Z,988.1
2023-03-11T05:21:35.941Z,988.1
2023-03-11T05:22:52.151Z,988.3
2023-03-11T05:24:08.388Z,988.3
2023-03-11T05:25:24.646Z,988.2
2023-03-11T05:26:40.870Z,988.3
2023-03-11T05:27:57.132Z,988.2
2023-03-11T05:29:13.374Z,988.3
2023-03-11T05:30:29.591Z,988.3
2023-03-11T05:31:45.836Z,988.3
2023-03-11T05:33:01.091Z,988.3
2023-03-11T05:34:17.346Z,988.3
2023-03-11T05:35:33.594Z,988.3
2023-03-11T05:36:49.846Z,988.3
2023-03-11T05:38:06.064Z,988.4
2023-03-11T05:39:22.316Z,988.5
2023-03-11T05:40:38.547Z,988.5
2023-03-11T05:41:54.775Z,988.5
2023-03-11T05:43:11.026Z,988.5
2023-03-11T05:44:27.260Z,988.5
2023-03-11T05:45:43.506Z,988.5
2023-03-11T05:46:59.743Z,988.7
2023-03-11T05:48:16.003Z,988.6
2023-03-11T05:49:31.257Z,988.7
2023-03-11T05:50:47.499Z,988.7
2023-03-11T05:52:03.749Z,988.6
2023-03-11T05:53:19.972Z,988.7
2023-03-11T05:54:36.222Z,988.8
2023-03-11T05:55:52.437Z,988.8
2023-03-11T05:57:08.681Z,988.8
2023-03-11T05:58:24.955Z,988.8
2023-03-11T05:59:41.186Z,988.9
2023-03-11T06:00:57.409Z,988.9
2023-03-11T06:02:13.650Z,988.9
2023-03-11T06:03:29.893Z,988.9
2023-03-11T06:04:46.150Z,988.9
2023-03-11T06:06:02.497Z,989
2023-03-11T06:07:18.724Z,989
2023-03-11T06:08:34.964Z,989
2023-03-11T06:09:51.208Z,989
2023-03-11T06:11:07.451Z,989
2023-03-11T06:12:23.697Z,989.1
2023-03-11T06:13:39.941Z,989.1
2023-03-11T06:14:56.183Z,989.1
2023-03-11T06:16:12.428Z,989.1
2023-03-11T06:17:28.678Z,989.2
2023-03-11T06:18:44.893Z,989.3
2023-03-11T06:20:01.139Z,989.2
2023-03-11T06:21:17.381Z,989.3
2023-03-11T06:22:32.630Z,989.3
2023-03-11T06:23:48.884Z,989.4
2023-03-11T06:25:05.115Z,989.3
2023-03-11T06:26:21.370Z,989.4
2023-03-11T06:27:37.634Z,989.4
2023-03-11T06:28:53.834Z,989.5
2023-03-11T06:30:10.075Z,989.5
2023-03-11T06:31:26.349Z,989.5
2023-03-11T06:32:42.579Z,989.5
2023-03-11T06:33:58.809Z,989.6
2023-03-11T06:35:15.066Z,989.6
2023-03-11T06:36:31.291Z,989.8
2023-03-11T06:37:47.527Z,989.6
2023-03-11T06:39:02.786Z,989.6
2023-03-11T06:40:19.000Z,989.6
2023-03-11T06:41:35.294Z,989.8
2023-03-11T06:42:51.525Z,989.8
2023-03-11T06:44:07.752Z,989.8
2023-03-11T06:45:24.019Z,989.8
2023-03-11T06:46:40.260Z,989.9
2023-03-11T06:47:56.501Z,989.9
2023-03-11T06:49:12.716Z,990
2023-03-11T06:50:28.948Z,990
2023-03-11T06:51:45.183Z,990.1
2023-03-11T06:53:01.429Z,990.2
2023-03-11T06:55:33.929Z,990.2
2023-03-11T06:56:49.170Z,990.1
2023-03-11T06:58:05.401Z,990.2
2023-03-11T06:59:21.647Z,990.3
2023-03-11T07:00:37.895Z,990.2
2023-03-11T07:01:54.138Z,990.2
2023-03-11T07:03:10.381Z,990.3
2023-03-11T07:04:26.620Z,990.3
2023-03-11T07:05:42.852Z,990.3
2023-03-11T07:06:59.093Z,990.4
2023-03-11T07:08:15.331Z,990.4
2023-03-11T07:09:31.582Z,990.4
2023-03-11T07:10:47.841Z,990.4
2023-03-11T07:12:04.053Z,990.5
2023-03-11T07:13:19.322Z,990.5
2023-03-11T07:14:35.581Z,990.5
2023-03-11T07:15:51.792Z,990.5
2023-03-11T07:17:08.048Z,990.5
2023-03-11T07:18:24.270Z,990.6
2023-03-11T07:19:39.577Z,990.6
2023-03-11T07:20:55.799Z,990.6
2023-03-11T07:22:12.026Z,990.7
2023-03-11T07:23:28.258Z,990.7
2023-03-11T07:24:44.505Z,990.8
2023-03-11T07:26:00.742Z,990.8
2023-03-11T07:27:16.984Z,990.7
2023-03-11T07:28:33.262Z,990.8
2023-03-11T07:29:49.462Z,990.8
2023-03-11T07:31:05.728Z,990.8
2023-03-11T07:32:21.971Z,990.8
2023-03-11T07:33:38.205Z,990.8
2023-03-11T07:34:54.420Z,990.9
2023-03-11T07:36:09.693Z,991.1
2023-03-11T07:37:25.921Z,990.9
2023-03-11T07:38:42.197Z,990.9
2023-03-11T07:39:58.405Z,990.9
2023-03-11T07:41:14.666Z,990.9
2023-03-11T07:42:30.880Z,991
2023-03-11T07:43:47.126Z,991
2023-03-11T07:45:03.380Z,991
2023-03-11T07:46:19.612Z,991
2023-03-11T07:47:35.848Z,991.1
2023-03-11T07:48:52.087Z,991.1
2023-03-11T07:50:08.337Z,991.2
2023-03-11T07:51:24.570Z,991.2
2023-03-11T07:52:39.827Z,991.2
2023-03-11T07:53:56.064Z,991.2
2023-03-11T07:55:12.338Z,991.2
2023-03-11T07:56:28.573Z,991.2
2023-03-11T07:57:44.790Z,991.3
2023-03-11T07:59:01.033Z,991.3
2023-03-11T08:00:17.278Z,991.3
2023-03-11T08:01:33.520Z,991.3
2023-03-11T08:02:49.777Z,991.3
2023-03-11T08:04:06.000Z,991.4
2023-03-11T08:05:22.237Z,991.4
2023-03-11T08:06:38.505Z,991.5
2023-03-11T08:07:54.744Z,991.5
2023-03-11T08:09:09.966Z,991.5
2023-03-11T08:10:26.225Z,991.5
2023-03-11T08:11:42.458Z,991.6
2023-03-11T08:12:58.689Z,991.6
2023-03-11T08:14:14.968Z,991.6
2023-03-11T08:15:31.209Z,991.6
2023-03-11T08:16:47.454Z,991.7
2023-03-11T08:18:03.667Z,991.7
2023-03-11T08:19:19.905Z,991.7
2023-03-11T08:20:36.133Z,991.7
2023-03-11T08:21:52.391Z,991.8
2023-03-11T08:23:08.626Z,991.8
2023-03-11T08:24:24.861Z,991.8
2023-03-11T08:25:40.126Z,991.8
2023-03-11T08:26:56.360Z,991.8
2023-03-11T08:28:12.607Z,991.9
2023-03-11T08:29:28.848Z,991.9
2023-03-11T08:30:45.074Z,992
2023-03-11T08:32:01.333Z,991.9
2023-03-11T08:33:17.555Z,991.8
2023-03-11T08:34:33.813Z,991.9
2023-03-11T08:35:50.048Z,992
2023-03-11T08:37:06.287Z,992
2023-03-11T08:38:22.518Z,992
2023-03-11T08:39:38.774Z,991.9
2023-03-11T08:40:54.997Z,991.9
2023-03-11T08:42:10.265Z,992
2023-03-11T08:43:26.502Z,992.1
2023-03-11T08:44:42.741Z,991.9
2023-03-11T08:45:58.979Z,992
2023-03-11T08:47:15.220Z,992.1
2023-03-11T08:48:31.471Z,992.1
2023-03-11T08:49:47.708Z,992.1
2023-03-11T08:51:03.958Z,992.3
2023-03-11T08:52:20.191Z,992.2
2023-03-11T08:53:36.425Z,992.2
2023-03-11T08:54:52.660Z,992.3
2023-03-11T08:56:08.906Z,992.3
2023-03-11T08:57:25.149Z,992.4
2023-03-11T08:58:40.398Z,992.3
2023-03-11T08:59:56.637Z,992.4
2023-03-11T09:01:12.885Z,992.4
2023-03-11T09:02:29.124Z,992.4
2023-03-11T09:03:45.361Z,992.5
2023-03-11T09:05:01.602Z,992.4
2023-03-11T09:06:17.845Z,992.5
2023-03-11T09:07:34.086Z,992.5
2023-03-11T09:08:50.333Z,992.5
2023-03-11T09:10:06.576Z,992.5
2023-03-11T09:11:22.806Z,992.5
2023-03-11T09:12:39.059Z,992.6
2023-03-11T09:13:55.295Z,992.6
2023-03-11T09:15:10.552Z,992.7
2023-03-11T09:16:26.793Z,992.7
2023-03-11T09:17:43.023Z,992.7
2023-03-11T09:18:59.265Z,992.7
2023-03-11T09:20:15.509Z,992.7
2023-03-11T09:21:31.752Z,992.7
2023-03-11T09:22:48.002Z,992.7
2023-03-11T09:24:04.243Z,992.8
2023-03-11T09:25:20.478Z,992.8
2023-03-11T09:26:36.723Z,992.8
2023-03-11T09:27:52.953Z,992.9
2023-03-11T09:29:09.188Z,992.9
2023-03-11T09:30:25.431Z,992.9
2023-03-11T09:31:40.692Z,992.9
2023-03-11T09:32:56.935Z,993
2023-03-11T09:34:13.177Z,993
2023-03-11T09:35:29.418Z,993
2023-03-11T09:36:45.655Z,993
2023-03-11T09:38:01.904Z,993
2023-03-11T09:39:18.135Z,993
2023-03-11T09:40:34.374Z,993
2023-03-11T09:41:50.617Z,993.1
2023-03-11T09:43:06.861Z,993.2
2023-03-11T09:44:23.099Z,993
2023-03-11T09:45:39.332Z,993.1
2023-03-11T09:46:55.580Z,993.2
2023-03-11T09:48:10.845Z,993.2
2023-03-11T09:49:27.082Z,993.1
2023-03-11T09:50:43.322Z,993.2
2023-03-11T09:51:59.567Z,993.2
2023-03-11T09:53:15.799Z,993.3
2023-03-11T09:54:32.046Z,993.3
2023-03-11T09:55:48.276Z,993.3
2023-03-11T09:58:20.769Z,993.4
2023-03-11T09:59:36.998Z,993.4
2023-03-11T10:00:53.251Z,993.4
2023-03-11T10:02:09.490Z,993.4
2023-03-11T10:03:25.733Z,993.4
2023-03-11T10:04:40.986Z,993.5
2023-03-11T10:05:57.224Z,993.4
2023-03-11T10:07:13.462Z,993.5
2023-03-11T10:08:29.701Z,993.4
2023-03-11T10:09:45.945Z,993.5
2023-03-11T10:11:02.198Z,993.5
2023-03-11T10:12:18.415Z,993.4
2023-03-11T10:13:34.668Z,993.5
2023-03-11T10:14:50.904Z,993.6
2023-03-11T10:16:07.151Z,993.6
2023-03-11T10:17:23.388Z,993.6
2023-03-11T10:18:39.630Z,993.7
2023-03-11T10:19:55.861Z,993.6
2023-03-11T10:21:11.131Z,993.7
2023-03-11T10:22:27.366Z,993.6
2023-03-11T10:23:43.603Z,993.7
2023-03-11T10:24:59.850Z,993.7
2023-03-11T10:26:16.094Z,993.8
2023-03-11T10:27:32.320Z,993.7
2023-03-11T10:28:48.564Z,993.7
2023-03-11T10:30:04.798Z,993.8
2023-03-11T10:31:21.044Z,993.7
2023-03-11T10:32:37.286Z,993.8
2023-03-11T10:33:53.533Z,993.7
2023-03-11T10:35:09.764Z,993.7
2023-03-11T10:36:26.007Z,993.8
2023-03-11T10:37:41.264Z,993.8
2023-03-11T10:38:57.501Z,993.8
2023-03-11T10:40:13.739Z,993.7
2023-03-11T10:41:29.990Z,993.7
2023-03-11T10:42:46.227Z,993.8
2023-03-11T10:44:02.462Z,993.9
2023-03-11T10:45:18.709Z,993.8
2023-03-11T10:46:34.961Z,993.8
2023-03-11T10:47:51.184Z,993.8
2023-03-11T10:49:07.428Z,993.8
2023-03-11T10:50:23.679Z,993.8
2023-03-11T10:51:39.918Z,993.8
2023-03-11T10:52:56.146Z,993.9
2023-03-11T10:54:11.416Z,993.9
2023-03-11T10:55:27.647Z,993.9
2023-03-11T10:56:43.887Z,993.9
2023-03-11T10:58:00.137Z,993.9
2023-03-11T10:59:16.376Z,994
2023-03-11T11:00:32.610Z,994
2023-03-11T11:01:48.862Z,994
2023-03-11T11:03:05.096Z,994.1
2023-03-11T11:04:21.337Z,994
2023-03-11T11:05:37.576Z,994.1
2023-03-11T11:06:53.815Z,994.1
2023-03-11T11:08:10.056Z,994.1
2023-03-11T11:09:26.310Z,994.1
2023-03-11T11:10:41.545Z,994.1
2023-03-11T11:11:57.800Z,994.1
2023-03-11T11:13:14.030Z,994.2
2023-03-11T11:14:30.269Z,994.1
2023-03-11T11:15:46.512Z,994.1
2023-03-11T11:17:02.759Z,994.1
2023-03-11T11:18:18.998Z,994.2
2023-03-11T11:19:35.245Z,994.1
2023-03-11T11:20:51.476Z,994.1
2023-03-11T11:22:07.716Z,994.2
2023-03-11T11:23:23.956Z,994.2
2023-03-11T11:24:40.201Z,994.2
2023-03-11T11:25:56.440Z,994.2
2023-03-11T11:27:11.696Z,994.2
2023-03-11T11:28:27.930Z,994.3
2023-03-11T11:29:44.181Z,994.3
2023-03-11T11:31:00.412Z,994.3
2023-03-11T11:32:16.652Z,994.3
2023-03-11T11:33:32.908Z,994.3
2023-03-11T11:34:48.167Z,994.3
2023-03-11T11:36:04.396Z,994.3
2023-03-11T11:37:20.634Z,994.3
2023-03-11T11:38:36.891Z,994.3
2023-03-11T11:39:53.137Z,994.3
2023-03-11T11:41:09.363Z,994.3
2023-03-11T11:42:25.606Z,994.4
2023-03-11T11:43:41.842Z,994.4
2023-03-11T11:44:58.082Z,994.4
2023-03-11T11:46:14.322Z,994.4
2023-03-11T11:47:30.572Z,994.4
2023-03-11T11:48:46.804Z,994.4
2023-03-11T11:50:03.057Z,994.4
2023-03-11T11:51:18.314Z,994.4
2023-03-11T11:52:34.547Z,994.5
2023-03-11T11:53:50.781Z,994.3
2023-03-11T11:55:07.032Z,994.4
2023-03-11T11:56:23.000Z,994.4
2023-03-11T11:57:39.505Z,994.5
2023-03-11T11:58:55.739Z,994.4
2023-03-11T12:00:11.998Z,994.4
2023-03-11T12:01:28.227Z,994.3
2023-03-11T12:02:44.470Z,994.3
2023-03-11T12:04:00.720Z,994.2
2023-03-11T12:05:16.942Z,994.3
2023-03-11T12:06:33.189Z,994.4
2023-03-11T12:07:48.447Z,994.5
2023-03-11T12:09:04.702Z,994.2
2023-03-11T12:10:20.943Z,994.2
2023-03-11T12:11:37.173Z,994.2
2023-03-11T12:12:53.420Z,994.4
2023-03-11T12:14:09.659Z,994.2
2023-03-11T12:15:25.899Z,994.2
2023-03-11T12:16:42.150Z,994.3
2023-03-11T12:17:58.378Z,994.2
2023-03-11T12:19:14.620Z,994.3
2023-03-11T12:20:30.852Z,994.2
2023-03-11T12:21:47.100Z,994.3
2023-03-11T12:23:03.349Z,994.3
2023-03-11T12:24:18.607Z,994.3
2023-03-11T12:25:34.846Z,994.3
2023-03-11T12:26:51.073Z,994.3
2023-03-11T12:28:07.324Z,994.3
2023-03-11T12:29:23.568Z,994.3
2023-03-11T12:30:39.791Z,994.3
2023-03-11T12:31:56.050Z,994.3
2023-03-11T12:33:12.275Z,994.3
2023-03-11T12:34:28.511Z,994.4
2023-03-11T12:35:44.757Z,994.3
2023-03-11T12:37:01.006Z,994.3
2023-03-11T12:38:17.246Z,994.4
2023-03-11T12:39:33.482Z,994.4
2023-03-11T12:40:48.733Z,994.4
2023-03-11T12:42:04.972Z,994.4
2023-03-11T12:43:21.217Z,994.4
2023-03-11T12:44:37.449Z,994.5
2023-03-11T12:45:53.712Z,994.4
2023-03-11T12:47:09.944Z,994.5
2023-03-11T12:48:26.177Z,994.5
2023-03-11T12:49:42.422Z,994.5
2023-03-11T12:50:58.669Z,994.5
2023-03-11T12:52:14.903Z,994.5
2023-03-11T12:53:31.135Z,994.5
2023-03-11T12:54:47.396Z,994.5
2023-03-11T12:56:03.623Z,994.6
2023-03-11T12:57:18.883Z,994.5
2023-03-11T12:58:35.110Z,994.5
2023-03-11T12:59:51.369Z,994.5
2023-03-11T13:01:07.610Z,994.5
2023-03-11T13:02:23.832Z,994.5
2023-03-11T13:03:40.078Z,994.6
2023-03-11T13:04:56.322Z,994.6
2023-03-11T13:06:12.563Z,994.5
2023-03-11T13:07:28.813Z,994.7
2023-03-11T13:08:45.043Z,994.6
2023-03-11T13:10:01.275Z,994.6
2023-03-11T13:11:17.524Z,994.6
2023-03-11T13:12:33.760Z,994.7
2023-03-11T13:13:49.034Z,994.7
2023-03-11T13:15:05.261Z,994.7
2023-03-11T13:16:21.491Z,994.7
2023-03-11T13:17:37.749Z,994.7
2023-03-11T13:18:53.979Z,994.7
2023-03-11T13:20:10.228Z,994.7
2023-03-11T13:21:26.463Z,994.7
2023-03-11T13:22:42.698Z,994.7
2023-03-11T13:23:58.942Z,994.8
2023-03-11T13:25:15.183Z,994.7
2023-03-11T13:26:31.436Z,994.8
2023-03-11T13:27:47.665Z,994.8
2023-03-11T13:29:03.909Z,994.8
2023-03-11T13:30:19.163Z,994.9
2023-03-11T13:31:35.400Z,994.8
2023-03-11T13:32:51.643Z,994.8
2023-03-11T13:34:07.893Z,994.8
2023-03-11T13:35:24.125Z,994.8
2023-03-11T13:36:40.379Z,994.8
2023-03-11T13:37:56.609Z,994.9
2023-03-11T13:39:12.845Z,994.9
2023-03-11T13:40:29.105Z,994.9
2023-03-11T13:41:45.340Z,994.9
2023-03-11T13:43:01.578Z,994.9
2023-03-11T13:44:17.808Z,994.9
2023-03-11T13:45:34.047Z,994.9
2023-03-11T13:46:49.303Z,995
2023-03-11T13:48:05.554Z,995
2023-03-11T13:49:21.780Z,994.9
2023-03-11T13:50:38.037Z,995
2023-03-11T13:51:54.259Z,995
2023-03-11T13:53:10.502Z,995
2023-03-11T13:54:26.749Z,995
2023-03-11T13:55:42.984Z,995.2
2023-03-11T13:56:59.231Z,995
2023-03-11T13:58:15.467Z,995.1
2023-03-11T13:59:31.716Z,995
2023-03-11T14:00:47.956Z,995
2023-03-11T14:02:04.200Z,995.1
2023-03-11T14:03:19.465Z,995.1
2023-03-11T14:04:35.694Z,995
2023-03-11T14:05:51.929Z,995.1
2023-03-11T14:07:08.170Z,995
2023-03-11T14:08:24.422Z,995
2023-03-11T14:09:40.654Z,995.1
2023-03-11T14:10:56.883Z,995.1
2023-03-11T14:12:13.134Z,995.1
2023-03-11T14:13:29.362Z,995.1
2023-03-11T14:14:45.616Z,995.1
2023-03-11T14:16:01.854Z,995.2
2023-03-11T14:17:18.099Z,995.1
2023-03-11T14:18:34.334Z,995.1
2023-03-11T14:19:49.587Z,995.1
2023-03-11T14:21:05.833Z,995.1
2023-03-11T14:22:22.062Z,995.2
2023-03-11T14:23:38.320Z,995.2
2023-03-11T14:24:54.551Z,995.2
2023-03-11T14:26:10.793Z,995.3
2023-03-11T14:27:27.033Z,995.3
2023-03-11T14:28:43.266Z,995.3
2023-03-11T14:29:59.511Z,995.3
2023-03-11T14:31:15.755Z,995.4
2023-03-11T14:32:32.005Z,995.5
2023-03-11T14:33:48.230Z,995.4
2023-03-11T14:35:04.476Z,995.5
2023-03-11T14:36:19.729Z,995.5
2023-03-11T14:37:35.981Z,995.4
2023-03-11T14:38:52.213Z,995.5
2023-03-11T14:40:08.449Z,995.5
2023-03-11T14:41:24.700Z,995.5
2023-03-11T14:42:40.937Z,995.5
2023-03-11T14:43:57.175Z,995.5
2023-03-11T14:45:13.404Z,995.6
2023-03-11T14:46:29.653Z,995.5
2023-03-11T14:47:45.892Z,995.6
2023-03-11T14:49:02.150Z,995.7
2023-03-11T14:50:18.383Z,995.6
2023-03-11T14:51:34.618Z,995.6
2023-03-11T14:52:49.877Z,995.7
2023-03-11T14:55:22.345Z,995.6
2023-03-11T14:56:38.601Z,995.7
2023-03-11T14:57:54.838Z,995.7
2023-03-11T14:59:11.066Z,995.8
2023-03-11T15:00:27.313Z,995.7
2023-03-11T15:01:43.549Z,995.8
2023-03-11T15:02:59.793Z,995.7
2023-03-11T15:04:16.042Z,995.9
2023-03-11T15:05:32.290Z,995.8
2023-03-11T15:06:48.514Z,995.8
2023-03-11T15:08:04.755Z,995.8
2023-03-11T15:09:20.013Z,995.8
2023-03-11T15:10:36.257Z,995.8
2023-03-11T15:11:52.494Z,995.8
2023-03-11T15:13:08.748Z,995.8
2023-03-11T15:14:24.985Z,995.9
2023-03-11T15:15:41.220Z,995.8
2023-03-11T15:16:57.448Z,995.8
2023-03-11T15:18:13.689Z,995.9
2023-03-11T15:19:29.942Z,995.9
2023-03-11T15:20:46.178Z,995.8
2023-03-11T15:22:02.416Z,995.9
2023-03-11T15:23:18.663Z,995.9
2023-03-11T15:24:34.898Z,995.9
2023-03-11T15:25:50.161Z,995.9
2023-03-11T15:27:06.396Z,995.9
2023-03-11T15:28:22.648Z,996
2023-03-11T15:29:38.894Z,996
2023-03-11T15:30:55.127Z,995.9
2023-03-11T15:32:11.388Z,996
2023-03-11T15:33:27.605Z,995.9
2023-03-11T15:34:43.844Z,995.9
2023-03-11T15:36:00.107Z,996
2023-03-11T15:37:16.330Z,995.9
2023-03-11T15:38:32.582Z,996
2023-03-11T15:39:48.825Z,995.9
2023-03-11T15:41:05.045Z,995.9
2023-03-11T15:42:20.310Z,995.9
2023-03-11T15:43:36.560Z,995.9
2023-03-11T15:44:52.797Z,995.9
2023-03-11T15:46:09.032Z,995.9
2023-03-11T15:47:25.272Z,995.9
2023-03-11T15:48:41.513Z,995.9
2023-03-11T15:49:56.774Z,995.8
2023-03-11T15:51:13.005Z,995.9
2023-03-11T15:52:29.262Z,995.9
2023-03-11T15:53:45.493Z,995.8
2023-03-11T15:55:01.745Z,995.9
2023-03-11T15:56:17.972Z,995.8
2023-03-11T15:57:34.221Z,995.9
2023-03-11T15:58:50.460Z,995.9
2023-03-11T16:00:06.701Z,995.9
2023-03-11T16:01:22.936Z,995.9
2023-03-11T16:02:39.177Z,996.1
2023-03-11T16:03:55.415Z,996
2023-03-11T16:05:11.646Z,996
2023-03-11T16:06:26.903Z,996
2023-03-11T16:07:43.144Z,996.1
2023-03-11T16:08:59.396Z,996.1
2023-03-11T16:10:15.631Z,996.1
2023-03-11T16:11:31.885Z,996.2
2023-03-11T16:12:48.105Z,996.2
2023-03-11T16:14:04.367Z,996.2
2023-03-11T16:15:20.596Z,996.2
2023-03-11T16:16:36.841Z,996.3
2023-03-11T16:17:53.071Z,996.3
2023-03-11T16:19:09.314Z,996.2
2023-03-11T16:20:25.559Z,996.3
2023-03-11T16:21:41.803Z,996.3
2023-03-11T16:22:57.049Z,996.3
2023-03-11T16:24:13.295Z,996.3
2023-03-11T16:25:29.546Z,996.3
2023-03-11T16:26:45.767Z,996.4
2023-03-11T16:28:02.014Z,996.3
2023-03-11T16:29:18.251Z,996.4
2023-03-11T16:30:34.510Z,996.4
2023-03-11T16:31:50.736Z,996.4
2023-03-11T16:33:06.981Z,996.4